Time;durP1;ratioP1;P1;durP2;ratioP2;P2;SDS_P1;SDS_P2;PMS_P1;PMS_P2;Temp;Humidity;BMP_temperature;BMP_pressure;BME280_temperature;BME280_humidity;BME280_pressure;Samples;Min_cycle;Max_cycle;Signal;HPM_P1;HPM_P2
2021/03/17 00:00:00;;;;;;;3.93;3.07;;;2.30;99.10;;;;;;5006577;28;20673;-84
2021/03/17 00:02:27;;;;;;;2.73;2.40;;;2.30;98.30;;;;;;5014366;28;20234;-84
2021/03/17 00:04:53;;;;;;;2.90;2.60;;;2.40;97.00;;;;;;5012235;28;20537;-83
2021/03/17 00:07:21;;;;;;;3.13;2.30;;;2.40;96.80;;;;;;5015312;28;20230;-82
2021/03/17 00:09:53;;;;;;;3.27;2.50;;;2.50;96.70;;;;;;5014964;28;20645;-82
2021/03/17 00:15:48;;;;;;;4.10;2.57;;;2.40;96.30;;;;;;5015438;28;20185;-82
2021/03/17 00:18:15;;;;;;;3.27;2.40;;;2.40;96.40;;;;;;5014496;28;20246;-83
2021/03/17 00:20:42;;;;;;;3.83;2.47;;;2.40;96.70;;;;;;5017214;28;20217;-83
2021/03/17 00:23:13;;;;;;;3.70;3.30;;;2.50;96.70;;;;;;5016909;28;20199;-83
2021/03/17 00:32:36;;;;;;;5.80;4.20;;;2.60;96.50;;;;;;5015714;28;20684;-83
2021/03/17 00:42:30;;;;;;;6.30;4.40;;;2.70;96.70;;;;;;5016520;28;20577;-83
2021/03/17 00:48:37;;;;;;;7.20;4.20;;;2.70;96.10;;;;;;5015582;28;20201;-83
2021/03/17 00:51:56;;;;;;;5.33;3.70;;;2.70;95.70;;;;;;5014806;28;20201;-83
2021/03/17 00:54:35;;;;;;;5.97;4.03;;;2.60;96.00;;;;;;5015180;28;20290;-83
2021/03/17 00:57:02;;;;;;;5.60;4.13;;;2.60;96.20;;;;;;5014463;28;20211;-83
2021/03/17 00:59:30;;;;;;;5.20;4.00;;;2.50;96.80;;;;;;5013617;28;20204;-83
2021/03/17 01:01:56;;;;;;;6.07;4.20;;;2.60;96.90;;;;;;5006334;28;20319;-84
2021/03/17 01:04:24;;;;;;;5.87;4.37;;;2.50;96.60;;;;;;5015959;28;20215;-83
2021/03/17 01:06:51;;;;;;;6.00;4.20;;;2.60;97.00;;;;;;5012190;28;20207;-83
2021/03/17 01:09:18;;;;;;;6.77;4.37;;;2.60;97.10;;;;;;5020888;28;20230;-83
2021/03/17 01:11:45;;;;;;;5.50;4.27;;;2.60;97.20;;;;;;5034816;28;20701;-83
2021/03/17 01:15:07;;;;;;;5.50;4.63;;;2.60;97.10;;;;;;5018755;28;20223;-82
2021/03/17 01:17:33;;;;;;;6.13;4.00;;;2.70;97.20;;;;;;5004382;28;20655;-83
2021/03/17 01:20:00;;;;;;;5.43;4.30;;;2.60;97.50;;;;;;4997614;28;20703;-82
2021/03/17 01:23:02;;;;;;;4.97;4.10;;;2.70;97.20;;;;;;5002947;28;20203;-83
2021/03/17 01:29:10;;;;;;;4.93;4.40;;;2.70;97.00;;;;;;4999491;28;20585;-83
2021/03/17 01:31:58;;;;;;;5.17;4.13;;;2.80;97.00;;;;;;4999062;28;20270;-82
2021/03/17 01:34:37;;;;;;;4.87;4.23;;;2.80;97.00;;;;;;4998168;28;20583;-82
2021/03/17 01:37:04;;;;;;;8.40;4.37;;;2.80;97.20;;;;;;4999888;28;20219;-83
2021/03/17 01:39:31;;;;;;;5.90;4.43;;;2.80;97.20;;;;;;5028908;28;20197;-83
2021/03/17 01:41:57;;;;;;;5.97;4.33;;;2.70;97.20;;;;;;5037732;28;20555;-83
2021/03/17 01:44:24;;;;;;;5.50;4.73;;;2.80;97.20;;;;;;5023847;28;20223;-83
2021/03/17 01:46:57;;;;;;;4.87;4.37;;;2.90;96.90;;;;;;5017615;28;20198;-83
2021/03/17 01:50:16;;;;;;;5.70;4.53;;;2.90;96.90;;;;;;5017535;28;20211;-83
2021/03/17 01:52:45;;;;;;;5.47;4.80;;;3.00;96.80;;;;;;4998286;28;20236;-83
2021/03/17 01:55:12;;;;;;;6.47;5.03;;;2.90;96.40;;;;;;5006445;28;20210;-83
2021/03/17 01:57:39;;;;;;;11.37;7.17;;;2.70;96.50;;;;;;5008219;28;20231;-82
2021/03/17 04:07:27;;;;;;;8.10;6.70;;;2.90;95.90;;;;;;4995467;28;20256;-83
2021/03/17 04:09:56;;;;;;;8.57;6.87;;;2.70;96.10;;;;;;4993557;28;20307;-84
2021/03/17 04:12:24;;;;;;;8.73;7.67;;;2.80;96.50;;;;;;4970787;28;20340;-83
2021/03/17 04:14:57;;;;;;;7.93;7.13;;;2.70;96.60;;;;;;4987108;28;20201;-83
2021/03/17 04:17:25;;;;;;;8.37;7.03;;;2.60;96.90;;;;;;4993859;28;20339;-83
2021/03/17 04:19:56;;;;;;;6.83;6.10;;;2.60;96.90;;;;;;5002075;28;20204;-83
2021/03/17 04:22:25;;;;;;;6.50;5.73;;;2.60;97.20;;;;;;4992657;28;20227;-83
2021/03/17 04:24:58;;;;;;;6.40;5.47;;;2.60;97.20;;;;;;4987924;28;20547;-84
2021/03/17 04:27:26;;;;;;;7.57;5.97;;;2.50;97.00;;;;;;4984872;28;20234;-83
2021/03/17 04:29:54;;;;;;;7.73;6.30;;;2.50;97.10;;;;;;4981045;28;20204;-85
2021/03/17 04:32:21;;;;;;;6.47;5.77;;;2.50;97.20;;;;;;4992838;28;20584;-83
2021/03/17 04:34:49;;;;;;;7.37;5.93;;;2.40;97.30;;;;;;4992994;28;20209;-83
2021/03/17 04:37:17;;;;;;;7.40;6.50;;;2.40;97.20;;;;;;4968702;28;20223;-83
2021/03/17 04:39:51;;;;;;;8.40;6.50;;;2.40;97.90;;;;;;4988315;28;20217;-83
2021/03/17 04:42:20;;;;;;;8.17;6.70;;;2.50;97.60;;;;;;4995256;28;20211;-84
2021/03/17 04:44:47;;;;;;;7.13;6.10;;;2.60;97.20;;;;;;4972310;28;20238;-83
2021/03/17 04:47:14;;;;;;;9.57;7.57;;;2.70;96.80;;;;;;4987447;28;20206;-84
2021/03/17 04:49:43;;;;;;;8.20;6.70;;;2.80;96.50;;;;;;4992788;28;20226;-83
2021/03/17 04:52:10;;;;;;;8.53;6.67;;;2.70;96.40;;;;;;4992388;28;20196;-83
2021/03/17 04:54:36;;;;;;;10.90;6.83;;;2.60;96.60;;;;;;4996835;28;20208;-83
2021/03/17 04:57:04;;;;;;;9.27;6.73;;;2.70;97.10;;;;;;5005403;28;20234;-85
2021/03/17 04:59:35;;;;;;;8.73;6.60;;;2.70;96.90;;;;;;5000759;28;20558;-83
2021/03/17 05:02:03;;;;;;;7.40;6.37;;;2.80;96.80;;;;;;5002244;28;20223;-83
2021/03/17 05:04:31;;;;;;;7.77;6.07;;;2.70;96.80;;;;;;5002319;28;20207;-83
2021/03/17 05:06:58;;;;;;;7.47;6.43;;;2.70;97.00;;;;;;4994227;28;20215;-83
2021/03/17 05:09:25;;;;;;;6.07;5.47;;;2.80;97.20;;;;;;4997084;28;20271;-83
2021/03/17 05:11:51;;;;;;;6.40;5.63;;;2.90;96.40;;;;;;4997388;28;20196;-82
2021/03/17 05:14:19;;;;;;;8.23;5.60;;;2.80;96.40;;;;;;4996451;28;20243;-82
2021/03/17 05:16:46;;;;;;;7.97;5.83;;;2.90;96.20;;;;;;4996639;28;20188;-82
2021/03/17 05:37:06;;;;;;;8.93;6.30;;;2.90;96.00;;;;;;4998407;28;20219;-82
2021/03/17 05:40:06;;;;;;;8.33;6.40;;;2.80;95.80;;;;;;4997712;28;20256;-82
2021/03/17 05:42:32;;;;;;;8.13;6.93;;;2.80;96.00;;;;;;5002927;28;20559;-85
2021/03/17 05:45:00;;;;;;;8.73;7.43;;;2.80;95.90;;;;;;4980286;28;20197;-84
2021/03/17 05:47:26;;;;;;;10.20;7.90;;;2.80;96.00;;;;;;4996427;28;20238;-86
2021/03/17 05:49:53;;;;;;;12.77;8.60;;;2.70;96.20;;;;;;4985365;28;20279;-83
2021/03/17 05:52:20;;;;;;;10.03;8.50;;;2.70;96.30;;;;;;4976504;28;20243;-86
2021/03/17 05:54:47;;;;;;;10.57;9.27;;;2.80;96.50;;;;;;4969357;28;20210;-82
2021/03/17 05:57:14;;;;;;;10.63;9.03;;;2.70;96.20;;;;;;4955518;28;20703;-88
2021/03/17 05:59:41;;;;;;;11.83;9.17;;;2.80;96.30;;;;;;4978696;28;20208;-82
2021/03/17 06:02:09;;;;;;;14.10;9.07;;;2.80;96.10;;;;;;4974860;28;20211;-82
2021/03/17 06:04:39;;;;;;;9.90;8.60;;;2.70;96.50;;;;;;4997086;28;20299;-85
2021/03/17 06:07:13;;;;;;;12.27;9.10;;;2.80;96.20;;;;;;4980425;28;20212;-84
2021/03/17 06:09:39;;;;;;;13.03;9.43;;;2.60;96.10;;;;;;4975517;28;20207;-84
2021/03/17 06:12:09;;;;;;;11.70;9.37;;;2.60;96.60;;;;;;4981008;28;20295;-83
2021/03/17 06:14:37;;;;;;;11.07;9.03;;;2.70;96.40;;;;;;4966395;28;20208;-84
2021/03/17 06:17:11;;;;;;;11.07;8.93;;;2.70;96.30;;;;;;4979740;28;20716;-87
2021/03/17 06:19:43;;;;;;;12.30;9.30;;;2.90;95.80;;;;;;4994965;28;20204;-87
2021/03/17 06:22:09;;;;;;;12.30;9.13;;;3.20;95.30;;;;;;4989525;28;20203;-86
2021/03/17 06:24:36;;;;;;;13.17;9.33;;;3.30;94.70;;;;;;4989582;28;20681;-90
2021/03/17 06:27:04;;;;;;;12.77;8.60;;;3.40;94.50;;;;;;4972765;28;20205;-91
2021/03/17 06:29:31;;;;;;;11.80;9.80;;;3.40;93.90;;;;;;4987369;28;20279;-88
2021/03/17 06:31:58;;;;;;;11.13;9.10;;;3.30;93.60;;;;;;4990046;28;20196;-89
2021/03/17 06:34:25;;;;;;;13.50;10.00;;;3.30;93.50;;;;;;4988301;28;20216;-88
2021/03/17 06:36:53;;;;;;;11.90;8.97;;;3.40;93.60;;;;;;4996604;28;20192;-89
2021/03/17 06:39:21;;;;;;;13.07;9.23;;;3.50;93.40;;;;;;4983704;28;20234;-89
2021/03/17 06:42:09;;;;;;;11.13;8.43;;;3.40;93.10;;;;;;4985348;28;20204;-87
2021/03/17 06:44:36;;;;;;;11.63;8.13;;;3.30;93.90;;;;;;4949819;28;20229;-87
2021/03/17 06:47:18;;;;;;;11.63;9.03;;;3.20;93.60;;;;;;4971615;28;20655;-87
2021/03/17 06:49:46;;;;;;;11.30;8.00;;;3.20;93.60;;;;;;4990427;28;20240;-86
2021/03/17 06:52:33;;;;;;;11.53;8.73;;;3.20;93.40;;;;;;4984214;28;20648;-85
2021/03/17 06:55:08;;;;;;;14.73;8.97;;;3.20;93.70;;;;;;4989453;28;20208;-86
2021/03/17 06:57:35;;;;;;;10.63;8.80;;;3.20;93.90;;;;;;4972713;28;20253;-85
2021/03/17 07:00:20;;;;;;;11.23;9.33;;;3.20;93.60;;;;;;4970390;28;20203;-87
2021/03/17 07:02:51;;;;;;;14.80;8.13;;;3.30;93.40;;;;;;4978298;28;20321;-87
2021/03/17 07:05:18;;;;;;;11.20;8.50;;;3.20;92.30;;;;;;4976892;28;20664;-86
2021/03/17 07:07:49;;;;;;;13.53;9.73;;;3.30;91.90;;;;;;4985625;28;20788;-88
2021/03/17 07:10:27;;;;;;;14.13;8.80;;;3.30;91.80;;;;;;4977814;28;20228;-87
2021/03/17 07:12:54;;;;;;;11.30;9.23;;;3.40;92.00;;;;;;4990349;28;20239;-87
2021/03/17 07:15:23;;;;;;;13.83;8.83;;;3.30;91.30;;;;;;4986161;28;20577;-87
2021/03/17 07:17:52;;;;;;;13.20;9.50;;;3.20;91.20;;;;;;4983041;28;20586;-87
2021/03/17 07:20:37;;;;;;;11.10;8.97;;;3.30;91.50;;;;;;4984978;28;20214;-87
2021/03/17 07:23:30;;;;;;;12.97;9.50;;;3.40;91.70;;;;;;4984584;28;20772;-88
2021/03/17 07:26:05;;;;;;;12.37;9.63;;;3.40;91.10;;;;;;4979054;28;20499;-88
2021/03/17 07:28:53;;;;;;;13.97;10.00;;;3.50;90.90;;;;;;4991685;28;20231;-86
2021/03/17 07:31:22;;;;;;;13.10;9.27;;;3.50;90.70;;;;;;4987395;28;20219;-87
2021/03/17 07:33:49;;;;;;;13.90;9.50;;;3.60;90.30;;;;;;4982944;28;20296;-88
2021/03/17 07:36:31;;;;;;;13.87;9.63;;;3.50;90.80;;;;;;4982953;28;20365;-87
2021/03/17 07:38:58;;;;;;;13.00;9.80;;;3.70;90.90;;;;;;4978251;28;20235;-87
2021/03/17 07:41:25;;;;;;;13.20;10.13;;;3.90;91.00;;;;;;4974820;28;20200;-86
2021/03/17 07:43:54;;;;;;;15.33;10.00;;;3.90;90.50;;;;;;4979431;28;20701;-90
2021/03/17 07:46:21;;;;;;;14.23;10.47;;;4.00;90.50;;;;;;4985432;28;20226;-88
2021/03/17 07:48:49;;;;;;;14.43;10.30;;;4.10;89.00;;;;;;4988357;28;20636;-87
2021/03/17 07:51:17;;;;;;;11.47;9.73;;;4.30;88.50;;;;;;4994614;28;20699;-85
2021/03/17 07:53:48;;;;;;;16.17;10.37;;;4.40;88.60;;;;;;4985254;28;20289;-86
2021/03/17 07:56:16;;;;;;;13.73;10.07;;;4.30;88.50;;;;;;4985103;28;20251;-87
2021/03/17 07:58:43;;;;;;;16.87;10.17;;;4.00;90.00;;;;;;4986525;28;20500;-87
2021/03/17 08:01:10;;;;;;;14.70;10.33;;;3.90;90.20;;;;;;4969420;28;20290;-87
2021/03/17 08:03:37;;;;;;;13.43;10.33;;;4.00;90.30;;;;;;4979655;28;20227;-87
2021/03/17 08:06:06;;;;;;;17.10;10.33;;;4.00;90.30;;;;;;4988709;28;20307;-86
2021/03/17 08:08:34;;;;;;;14.90;10.47;;;4.00;90.00;;;;;;4985422;28;20239;-86
2021/03/17 08:11:03;;;;;;;13.10;9.93;;;4.10;90.40;;;;;;4978724;28;20278;-90
2021/03/17 08:13:30;;;;;;;13.13;9.77;;;4.30;90.10;;;;;;4985902;28;20243;-88
2021/03/17 08:15:57;;;;;;;15.97;9.77;;;4.60;88.70;;;;;;4984098;28;20252;-87
2021/03/17 08:18:50;;;;;;;12.40;9.43;;;4.90;86.30;;;;;;4997480;28;20568;-85
2021/03/17 08:24:46;;;;;;;11.43;8.13;;;5.90;77.50;;;;;;5005884;28;20255;-87
2021/03/17 08:27:29;;;;;;;13.00;8.67;;;5.90;75.10;;;;;;4994103;28;20207;-88
2021/03/17 08:33:46;;;;;;;10.60;8.23;;;5.70;75.00;;;;;;5021172;28;20222;-87
2021/03/17 08:37:01;;;;;;;11.53;7.90;;;5.80;75.90;;;;;;5010466;28;20191;-89
2021/03/17 09:47:44;;;;;;;13.87;7.23;;;4.10;90.30;;;;;;4978813;28;20231;-86
2021/03/17 09:50:23;;;;;;;9.07;6.30;;;4.50;90.20;;;;;;4922872;28;20196;-85
2021/03/17 09:53:02;;;;;;;9.67;6.07;;;5.20;87.30;;;;;;4979821;28;20246;-86
2021/03/17 09:56:02;;;;;;;8.93;6.13;;;5.50;84.20;;;;;;4985238;28;20208;-86
2021/03/17 09:58:57;;;;;;;9.80;5.90;;;5.60;82.70;;;;;;4977541;28;20410;-86
2021/03/17 10:01:25;;;;;;;8.23;5.87;;;5.80;81.00;;;;;;4981193;28;20781;-86
2021/03/17 10:41:59;;;;;;;11.68;6.55;;;11.20;47.80;;;;;;4971867;28;20177;-88
2021/03/17 10:44:27;;;;;;;12.18;7.70;;;12.10;44.70;;;;;;4968007;28;20233;-88
2021/03/17 10:50:56;;;;;;;7.90;6.35;;;13.40;39.10;;;;;;4914194;28;20227;-86
2021/03/17 10:57:01;;;;;;;9.23;6.65;;;11.90;40.20;;;;;;4884073;29;20204;-88
2021/03/17 10:59:29;;;;;;;9.88;7.22;;;11.90;40.70;;;;;;4885956;29;20265;-88
2021/03/17 11:32:54;;;;;;;9.47;7.23;;;7.80;55.10;;;;;;4918870;28;20273;-91
2021/03/17 11:35:30;;;;;;;14.80;9.17;;;7.70;56.10;;;;;;4918752;29;20760;-89
2021/03/17 11:41:50;;;;;;;8.73;5.83;;;7.20;55.40;;;;;;4898574;29;20163;-89
2021/03/17 11:44:18;;;;;;;10.80;7.50;;;6.90;59.90;;;;;;4918495;28;20246;-89
2021/03/17 11:46:45;;;;;;;7.70;4.87;;;6.50;62.30;;;;;;4929643;28;20258;-88
2021/03/17 11:49:12;;;;;;;8.13;5.20;;;5.90;60.90;;;;;;4972037;28;20238;-86
2021/03/17 11:51:47;;;;;;;8.73;5.73;;;5.20;67.50;;;;;;4932566;28;20203;-86
2021/03/17 11:54:14;;;;;;;9.67;5.37;;;5.10;69.80;;;;;;4954777;28;20598;-87
2021/03/17 11:56:41;;;;;;;8.30;5.70;;;5.10;69.90;;;;;;4927959;28;20206;-87
2021/03/17 11:59:07;;;;;;;8.50;5.97;;;5.20;76.90;;;;;;4925709;28;20230;-87
2021/03/17 12:01:34;;;;;;;8.30;4.30;;;5.30;77.40;;;;;;4904517;28;20374;-87
2021/03/17 12:04:00;;;;;;;6.40;4.63;;;5.20;79.00;;;;;;4925051;28;20228;-87
2021/03/17 12:06:27;;;;;;;9.73;4.20;;;5.20;80.10;;;;;;4946399;28;20191;-89
2021/03/17 12:08:54;;;;;;;6.50;4.03;;;5.30;78.80;;;;;;4923199;28;20234;-86
2021/03/17 12:11:25;;;;;;;5.10;3.63;;;5.10;77.90;;;;;;4918969;28;20204;-87
2021/03/17 12:13:52;;;;;;;5.37;4.20;;;5.10;77.60;;;;;;4927502;28;20224;-86
2021/03/17 12:16:18;;;;;;;4.20;3.57;;;4.90;80.50;;;;;;4929982;28;20229;-86
2021/03/17 12:18:45;;;;;;;8.23;4.47;;;4.70;81.20;;;;;;4955625;28;20303;-85
2021/03/17 12:21:15;;;;;;;5.83;3.97;;;4.70;83.50;;;;;;4927954;28;20201;-85
2021/03/17 12:23:42;;;;;;;7.37;3.63;;;4.70;81.30;;;;;;4959009;28;20631;-85
2021/03/17 12:26:09;;;;;;;5.30;3.60;;;4.90;81.00;;;;;;4923329;28;20293;-87
2021/03/17 12:28:35;;;;;;;7.60;3.67;;;5.00;79.70;;;;;;4968286;28;20317;-87
2021/03/17 12:31:03;;;;;;;5.43;3.70;;;4.90;80.40;;;;;;4921628;28;20225;-86
2021/03/17 12:33:29;;;;;;;5.87;3.63;;;5.00;78.20;;;;;;4915859;28;20291;-84
2021/03/17 12:35:56;;;;;;;4.33;3.10;;;5.10;77.50;;;;;;4916859;28;20207;-83
2021/03/17 12:38:23;;;;;;;3.87;3.10;;;5.40;74.40;;;;;;4908993;28;20238;-86
2021/03/17 12:40:50;;;;;;;7.90;3.43;;;5.60;75.20;;;;;;4910029;28;20214;-85
2021/03/17 12:43:16;;;;;;;7.30;3.60;;;5.80;70.70;;;;;;4941591;28;20227;-88
2021/03/17 12:45:43;;;;;;;5.73;2.93;;;5.90;70.70;;;;;;4946541;28;20202;-89
2021/03/17 12:48:10;;;;;;;6.53;3.27;;;5.90;70.70;;;;;;4947620;28;20223;-85
2021/03/17 12:50:37;;;;;;;5.13;3.00;;;6.20;67.20;;;;;;4942324;28;20598;-87
2021/03/17 12:53:03;;;;;;;4.50;2.33;;;6.30;63.20;;;;;;4916176;28;20234;-86
2021/03/17 12:55:30;;;;;;;5.63;2.67;;;6.30;57.80;;;;;;4950947;28;20198;-88
2021/03/17 12:57:57;;;;;;;5.80;2.50;;;6.10;55.80;;;;;;4924466;28;20249;-86
2021/03/17 13:00:25;;;;;;;6.07;2.40;;;6.30;54.90;;;;;;4913024;29;20199;-86
2021/03/17 13:13:12;;;;;;;3.67;1.83;;;6.10;48.20;;;;;;5005707;28;20219;-88
2021/03/17 13:15:43;;;;;;;5.17;2.50;;;6.00;48.40;;;;;;5009800;28;20199;-84
2021/03/17 13:18:10;;;;;;;4.87;2.60;;;5.80;47.70;;;;;;4994628;28;20235;-86
2021/03/17 13:20:36;;;;;;;6.90;2.70;;;6.00;50.30;;;;;;5011484;28;20203;-86
2021/03/17 13:23:03;;;;;;;5.00;2.50;;;6.10;52.70;;;;;;5008202;28;20309;-86
2021/03/17 13:25:29;;;;;;;5.90;2.90;;;6.30;51.70;;;;;;5005136;28;20195;-86
2021/03/17 13:27:57;;;;;;;4.97;2.67;;;6.50;51.40;;;;;;4998345;28;20322;-86
2021/03/17 13:30:25;;;;;;;4.17;2.70;;;6.60;52.70;;;;;;4998841;28;20196;-86
2021/03/17 13:32:51;;;;;;;4.80;2.80;;;6.50;53.40;;;;;;4985977;28;20689;-86
2021/03/17 13:35:18;;;;;;;7.40;3.30;;;6.30;55.30;;;;;;5003265;28;20298;-87
2021/03/17 13:37:47;;;;;;;5.67;3.63;;;6.20;57.40;;;;;;5005371;28;20234;-87
2021/03/17 13:40:16;;;;;;;9.53;3.33;;;6.30;57.20;;;;;;5016665;28;20195;-87
2021/03/17 13:42:45;;;;;;;5.87;3.37;;;6.20;56.50;;;;;;5023864;28;20310;-86
2021/03/17 13:45:13;;;;;;;8.23;3.60;;;6.20;56.60;;;;;;5007362;28;20622;-85
2021/03/17 13:48:10;;;;;;;6.03;3.20;;;6.10;56.40;;;;;;5018585;28;20317;-86
2021/03/17 13:50:38;;;;;;;8.60;3.47;;;6.10;54.60;;;;;;4997485;28;20196;-87
2021/03/17 13:53:06;;;;;;;5.13;2.70;;;6.20;55.60;;;;;;4997875;28;20239;-85
2021/03/17 13:55:32;;;;;;;6.90;3.20;;;6.20;56.10;;;;;;4998045;28;20204;-87
2021/03/17 13:57:59;;;;;;;5.53;3.00;;;6.10;55.00;;;;;;4998369;28;20235;-86
2021/03/17 14:00:27;;;;;;;3.53;2.63;;;6.10;52.50;;;;;;5004207;28;20195;-88
2021/03/17 14:02:54;;;;;;;4.33;2.63;;;5.90;50.90;;;;;;4981648;28;20237;-85
2021/03/17 14:05:22;;;;;;;4.53;2.80;;;5.70;51.30;;;;;;4986699;28;20205;-86
2021/03/17 14:07:48;;;;;;;5.87;3.00;;;5.70;52.10;;;;;;4990359;28;20228;-84
2021/03/17 14:10:18;;;;;;;5.70;2.80;;;5.50;53.00;;;;;;4984503;28;20201;-86
2021/03/17 14:12:45;;;;;;;5.20;2.80;;;5.70;54.20;;;;;;4978971;28;20231;-85
2021/03/17 14:15:15;;;;;;;6.50;2.87;;;5.80;55.60;;;;;;4991499;28;20673;-88
2021/03/17 14:17:41;;;;;;;10.67;2.93;;;5.80;57.00;;;;;;4992727;28;20690;-86
2021/03/17 14:20:11;;;;;;;10.40;3.40;;;5.80;56.60;;;;;;4985121;28;20211;-87
2021/03/17 14:22:39;;;;;;;9.73;3.20;;;5.90;58.80;;;;;;4994194;28;20234;-84
2021/03/17 14:25:38;;;;;;;7.00;3.00;;;6.00;57.10;;;;;;4978202;28;20640;-84
2021/03/17 14:28:05;;;;;;;8.73;3.10;;;5.80;56.00;;;;;;4983760;28;20721;-85
2021/03/17 14:30:38;;;;;;;6.27;2.77;;;5.80;53.90;;;;;;4992629;28;20575;-84
2021/03/17 14:33:05;;;;;;;10.20;2.80;;;5.80;53.50;;;;;;4982995;28;20223;-85
2021/03/17 14:35:34;;;;;;;5.93;2.50;;;5.70;54.50;;;;;;4992979;28;20216;-85
2021/03/17 14:38:22;;;;;;;5.13;2.57;;;5.50;54.30;;;;;;4987236;28;20323;-85
2021/03/17 14:41:06;;;;;;;8.87;2.87;;;5.40;57.20;;;;;;4999391;28;20188;-85
2021/03/17 14:44:01;;;;;;;4.57;2.73;;;5.30;58.30;;;;;;4997561;28;20231;-84
2021/03/17 14:46:27;;;;;;;5.73;3.50;;;5.20;56.60;;;;;;4994206;28;20267;-82
2021/03/17 14:48:54;;;;;;;5.93;3.27;;;5.00;66.70;;;;;;4998560;28;20635;-82
2021/03/17 14:51:20;;;;;;;8.77;3.90;;;4.10;76.80;;;;;;4983611;28;20212;-84
2021/03/17 14:53:50;;;;;;;3.43;2.43;;;3.60;82.10;;;;;;5000977;28;20591;-85
2021/03/17 14:56:17;;;;;;;3.93;3.00;;;3.40;78.50;;;;;;4994294;28;20334;-87
2021/03/17 14:58:44;;;;;;;4.40;3.00;;;3.30;79.20;;;;;;4983341;28;20220;-90
2021/03/17 15:01:11;;;;;;;2.97;2.17;;;3.30;79.30;;;;;;4988317;28;20287;-84
2021/03/17 15:03:37;;;;;;;3.40;2.57;;;3.30;77.80;;;;;;4986126;28;20258;-85
2021/03/17 15:06:04;;;;;;;3.93;2.47;;;3.50;78.50;;;;;;4989182;28;20310;-88
2021/03/17 15:08:31;;;;;;;3.30;3.00;;;3.60;79.00;;;;;;4988626;28;20224;-85
2021/03/17 15:10:58;;;;;;;6.47;2.90;;;3.60;78.90;;;;;;4989342;28;20211;-86
2021/03/17 15:13:24;;;;;;;3.87;2.97;;;3.60;79.10;;;;;;4987087;28;20310;-88
2021/03/17 15:15:51;;;;;;;4.90;2.90;;;3.60;80.60;;;;;;4998998;28;20259;-84
2021/03/17 15:18:17;;;;;;;4.23;3.30;;;3.60;80.90;;;;;;4987196;28;20239;-86
2021/03/17 15:20:44;;;;;;;8.17;3.60;;;3.80;82.80;;;;;;4989977;28;20963;-87
2021/03/17 15:23:11;;;;;;;8.90;3.53;;;3.70;82.10;;;;;;4997695;28;20227;-86
2021/03/17 15:25:39;;;;;;;4.77;3.30;;;3.90;82.90;;;;;;4989546;28;20271;-85
2021/03/17 15:28:08;;;;;;;8.30;3.73;;;4.10;80.50;;;;;;4986463;28;20232;-88
2021/03/17 15:30:35;;;;;;;6.13;3.87;;;4.10;79.20;;;;;;4986408;28;20253;-86
2021/03/17 15:33:01;;;;;;;5.73;3.50;;;4.20;78.60;;;;;;4995605;28;20245;-86
2021/03/17 15:35:28;;;;;;;6.07;3.63;;;4.20;79.20;;;;;;4987999;28;20215;-85
2021/03/17 15:37:54;;;;;;;5.97;3.43;;;4.20;76.00;;;;;;4985266;28;20228;-84
2021/03/17 15:40:21;;;;;;;3.77;2.97;;;4.20;74.00;;;;;;4989087;28;20211;-82
2021/03/17 15:42:47;;;;;;;5.30;3.13;;;4.40;72.90;;;;;;4982206;28;20547;-88
2021/03/17 15:45:38;;;;;;;7.13;3.17;;;4.50;72.20;;;;;;4994350;28;20197;-83
2021/03/17 15:54:52;;;;;;;3.13;2.63;;;4.50;66.90;;;;;;4981740;28;20207;-82
2021/03/17 16:00:41;;;;;;;4.87;2.47;;;4.50;64.60;;;;;;4996750;28;20275;-82
2021/03/17 16:03:08;;;;;;;5.10;2.50;;;4.40;64.00;;;;;;5148064;22;20230;-90
2021/03/17 16:05:56;;;;;;;4.43;2.50;;;4.50;65.60;;;;;;5028444;28;20301;-86
2021/03/17 16:08:36;;;;;;;3.50;2.30;;;4.60;64.70;;;;;;5005216;28;20263;-87
2021/03/17 16:11:02;;;;;;;2.70;2.30;;;4.50;64.80;;;;;;5029874;28;20255;-84
2021/03/17 16:13:28;;;;;;;3.40;2.30;;;4.50;65.60;;;;;;5035113;28;20301;-88
2021/03/17 16:15:56;;;;;;;4.83;2.60;;;4.40;64.70;;;;;;5029736;28;20205;-84
2021/03/17 16:21:33;;;;;;;3.90;2.33;;;4.40;69.10;;;;;;4991629;28;20205;-85
2021/03/17 16:24:00;;;;;;;3.97;2.47;;;4.40;65.60;;;;;;5033631;28;20213;-88
2021/03/17 16:26:26;;;;;;;4.80;2.50;;;4.50;64.40;;;;;;5029776;28;20277;-88
2021/03/17 16:28:53;;;;;;;4.07;2.50;;;4.50;65.00;;;;;;5023891;28;20222;-85
2021/03/17 16:31:21;;;;;;;4.77;3.10;;;4.50;63.70;;;;;;5028525;28;20673;-87
2021/03/17 16:37:09;;;;;;;4.50;2.67;;;4.50;63.20;;;;;;5031122;28;20249;-89
2021/03/17 16:39:36;;;;;;;4.33;2.50;;;4.40;64.00;;;;;;5027562;28;20260;-88
2021/03/17 16:42:03;;;;;;;2.83;2.53;;;4.30;67.80;;;;;;5012856;28;20202;-87
2021/03/17 16:44:29;;;;;;;3.93;2.67;;;4.30;69.00;;;;;;5017367;28;20242;-88
2021/03/17 16:46:57;;;;;;;4.90;3.13;;;4.30;69.00;;;;;;5025875;28;20297;-89
2021/03/17 16:49:24;;;;;;;6.53;2.67;;;4.30;69.00;;;;;;5020085;28;20919;-86
2021/03/17 16:51:50;;;;;;;7.07;2.83;;;4.20;68.90;;;;;;5026078;28;20254;-89
2021/03/17 16:54:17;;;;;;;4.00;2.50;;;4.30;69.00;;;;;;5027551;28;20289;-90
2021/03/17 16:56:43;;;;;;;2.93;2.60;;;4.20;67.50;;;;;;5025226;28;20325;-89
2021/03/17 16:59:17;;;;;;;3.53;2.70;;;4.30;69.00;;;;;;5026812;28;20223;-90
2021/03/17 17:01:43;;;;;;;2.87;2.40;;;4.30;69.00;;;;;;5023083;28;20251;-87
2021/03/17 17:04:10;;;;;;;3.97;2.77;;;4.20;66.60;;;;;;5023084;28;20293;-88
2021/03/17 17:06:37;;;;;;;3.13;2.53;;;4.20;68.90;;;;;;5020898;28;20714;-89
2021/03/17 17:09:04;;;;;;;2.57;1.97;;;4.20;65.20;;;;;;5016523;28;20720;-88
2021/03/17 17:11:30;;;;;;;2.90;2.23;;;4.10;64.10;;;;;;5024321;28;20648;-87
2021/03/17 17:13:57;;;;;;;9.07;2.90;;;4.10;65.60;;;;;;5017586;28;20237;-85
2021/03/17 17:16:23;;;;;;;4.67;3.13;;;4.10;68.90;;;;;;5020296;28;20213;-86
2021/03/17 17:18:52;;;;;;;4.33;2.60;;;4.10;66.90;;;;;;5018917;28;20231;-81
2021/03/17 17:21:32;;;;;;;6.50;2.80;;;3.90;68.60;;;;;;5006745;28;20559;-87
2021/03/17 17:23:59;;;;;;;5.13;2.40;;;3.90;66.80;;;;;;5013709;28;20576;-86
2021/03/17 17:26:25;;;;;;;4.83;2.40;;;3.90;64.90;;;;;;5015294;28;20263;-88
2021/03/17 17:28:55;;;;;;;3.90;2.70;;;4.00;68.40;;;;;;5019945;28;20265;-89
2021/03/17 17:31:22;;;;;;;5.63;2.50;;;4.00;67.10;;;;;;5025534;28;20285;-85
2021/03/17 17:33:48;;;;;;;7.10;2.50;;;4.00;68.70;;;;;;4997999;28;20244;-84
2021/03/17 17:36:16;;;;;;;3.50;2.50;;;4.00;68.70;;;;;;5014913;28;20219;-87
2021/03/17 17:38:45;;;;;;;3.33;2.40;;;4.00;68.70;;;;;;5014316;28;20226;-86
2021/03/17 17:41:12;;;;;;;4.03;2.37;;;4.00;68.70;;;;;;5016803;28;20336;-84
2021/03/17 17:43:39;;;;;;;3.07;2.73;;;4.00;67.40;;;;;;5012939;28;20575;-86
2021/03/17 17:46:07;;;;;;;7.97;2.40;;;4.00;68.70;;;;;;5018756;28;20203;-90
2021/03/17 17:48:33;;;;;;;6.30;2.47;;;4.00;67.50;;;;;;5013238;28;20283;-86
2021/03/17 17:51:00;;;;;;;3.83;2.50;;;4.00;65.70;;;;;;5015713;28;20209;-86
2021/03/17 17:53:26;;;;;;;4.20;2.67;;;3.90;68.00;;;;;;5009467;28;20226;-88
2021/03/17 17:55:53;;;;;;;9.40;1.90;;;3.90;68.60;;;;;;5012104;28;20297;-88
2021/03/17 17:58:20;;;;;;;3.70;2.57;;;3.90;62.10;;;;;;4993288;28;20536;-88
2021/03/17 18:00:47;;;;;;;7.03;3.00;;;3.90;62.60;;;;;;5022118;28;20213;-88
2021/03/17 18:03:13;;;;;;;4.83;2.40;;;3.80;64.90;;;;;;5014818;28;20234;-88
2021/03/17 18:05:40;;;;;;;4.60;2.20;;;3.70;65.00;;;;;;5015398;28;20233;-88
2021/03/17 18:08:07;;;;;;;4.33;2.10;;;3.70;66.40;;;;;;5018466;28;20310;-89
2021/03/17 18:10:37;;;;;;;5.87;2.77;;;3.80;66.00;;;;;;5026601;28;20250;-91
2021/03/17 18:13:05;;;;;;;5.40;2.40;;;3.80;68.50;;;;;;5020714;28;20222;-88
2021/03/17 18:15:34;;;;;;;5.07;2.47;;;3.80;66.90;;;;;;5016357;28;20552;-87
2021/03/17 18:18:01;;;;;;;3.87;2.67;;;3.70;65.50;;;;;;5020055;28;20219;-88
2021/03/17 18:20:29;;;;;;;3.63;2.63;;;3.70;65.80;;;;;;5006166;28;20208;-92
2021/03/17 18:22:56;;;;;;;3.17;1.90;;;3.70;65.50;;;;;;5017761;28;20222;-89
2021/03/17 18:25:23;;;;;;;5.20;2.20;;;3.70;64.70;;;;;;5022865;28;20206;-87
2021/03/17 18:27:50;;;;;;;4.37;2.23;;;3.70;64.20;;;;;;5021317;28;20234;-87
2021/03/17 18:30:22;;;;;;;5.60;2.30;;;3.70;65.20;;;;;;5010407;28;20662;-86
2021/03/17 18:32:49;;;;;;;3.57;2.10;;;3.70;63.50;;;;;;5029373;28;20226;-90
2021/03/17 18:35:17;;;;;;;4.97;2.73;;;3.60;65.30;;;;;;5026941;28;20205;-92
2021/03/17 18:37:44;;;;;;;2.40;2.07;;;3.60;65.60;;;;;;5031657;28;20316;-89
2021/03/17 18:40:13;;;;;;;5.17;2.40;;;3.60;66.50;;;;;;5029938;28;20293;-86
2021/03/17 18:42:41;;;;;;;5.67;2.40;;;3.60;68.30;;;;;;5029195;28;20222;-88
2021/03/17 18:45:10;;;;;;;3.80;2.17;;;3.70;68.40;;;;;;5033428;28;20197;-86
2021/03/17 18:47:42;;;;;;;4.00;2.30;;;3.70;64.90;;;;;;5030380;28;20235;-87
2021/03/17 18:50:12;;;;;;;4.40;2.50;;;3.70;65.60;;;;;;5023349;28;20755;-85
2021/03/17 18:52:47;;;;;;;5.67;2.50;;;3.60;65.80;;;;;;5011012;28;20230;-84
2021/03/17 18:59:02;;;;;;;4.33;2.47;;;3.60;68.30;;;;;;5084666;27;20560;-86
2021/03/17 19:01:28;;;;;;;2.47;2.27;;;3.70;68.40;;;;;;5080616;28;20315;-85
2021/03/17 19:03:55;;;;;;;4.20;2.57;;;3.70;68.40;;;;;;5074292;28;20231;-87